Search for airport 
image banner adimage banner adimage banner ad
image banner ad

PA44 - Stone Castle Motel Airport

Located in Bloomsburg, United States

ICAO - PA44, IATA -

Data provided by Airmate  

General information

Coordinates: N40°22'21" W76°44'38"
Elevation is 544 feet MSL.
 
View others Airports in Pennsylvania

Operational data

Special qualification required
Current time UTC:
Current local time:
METAR: KMUI 071356Z 07008KT 10SM SCT075 BKN120 BKN250 16/01 A2991 RMK AO2A SLP132 T01570007
TAF: TAF KMUI 071100Z 0711/0817 VRB06KT 9999 SCT055 BKN200 QNH2980INS BECMG 0719/0720 05009KT 9000 -RA BKN030 OVC050 QNH2977INS BECMG 0723/0724 24009KT 6000 -RA BR OVC012 QNH2980INS BECMG 0808/0809 VRB06KT 8000 -SHRA SCT012 BKN030 BKN150 QNH2982INS BECMG 0814/0815 29010G15KT 8000 -SHRA BKN020 QNH2983INS TX16/0717Z TN06/0809Z
View NOTAMs / SUP AIP / TFR affecting this airport [VIEW]
Communications frequencies: [VIEW]

Runways:

RWY identifierQFULength (ft)Width (ft)SurfaceLDA (ft)
091500125GRASS
271500125GRASS

Airport contact information

Address: Bloomsburg United States

Satellite view of PA44